To NAV CANADA Home Page Login to a new session Search on AWWS site Feedback and Comments Disclaimer Vers la page française équivalente Tips FAQ What's new on the site To the Forecasts and Observations / NOTAM section To "File a Flight Plan" website Publications and other links Update of the User's profile FIC Telephone Numbers My Weather Data Folder Route Weather Data Regional Weather Data Local Weather Data To the Forecasts and Observations / NOTAM section
Request Generated 04/30/2016 at 03:24:58 UTC . Weather information available at that time is displayed.

METAR/TAF

HAMILTON/ON    

METAR CYHM 300300Z 29006KT 8SM FEW063 SCT078 05/M03 A3016 RMK SC1AC2
SLP222=
METAR CYHM 300200Z 02003KT 8SM SKC 05/M03 A3013 RMK SLP213=
METAR CYHM 300100Z 01005KT 10SM FEW080 FEW120 06/M03 A3012 RMK AC1AC1
AC TR AC TR SLP208=

TAF CYHM 292338Z 3000/3024 05006KT P6SM SCT060 BKN100 TEMPO 3000/3003
BKN060 BKN100
FM300300 03006KT P6SM FEW060
FM300900 03006KT P6SM SCT030 TEMPO 3009/3018 BKN030
BECMG 3013/3015 05012KT
FM302300 05015KT P6SM SCT040 BKN140
RMK NXT FCST BY 300600Z=
Your time UTC time
Weather data provided by Environment Canada and NAV CANADA